EDT,Max TemperatureF,Mean TemperatureF,Min TemperatureF,Max Dew PointF,MeanDew PointF,Min DewpointF,Max Humidity, Mean Humidity, Min Humidity, Max Sea Level PressureIn, Mean Sea Level PressureIn, Min Sea Level PressureIn, Max VisibilityMiles, Mean VisibilityMiles, Min VisibilityMiles, Max Wind SpeedMPH, Mean Wind SpeedMPH, Max Gust SpeedMPH,PrecipitationIn, CloudCover, Events, WindDirDegrees
2013-7-1,84,76,69,72,69,67,100,89,59,30.00,29.88,29.81,10,9,1,16,5,,0.98,6,Rain-Thunderstorm,145
2013-7-2,78,74,71,73,71,69,95,90,74,30.15,30.08,30.00,10,8,1,20,7,25,1.05,6,Rain,148
2013-7-3,82,76,73,75,72,70,100,91,74,30.22,30.17,30.13,10,10,2,15,4,22,0.68,5,Rain-Thunderstorm,133
2013-7-4,87,80,72,75,72,68,100,88,52,30.23,30.21,30.19,10,8,1,13,5,,0.04,5,Rain,126
2013-7-5,90,81,71,77,72,68,100,86,49,30.24,30.20,30.16,10,6,0,17,5,26,2.41,6,Fog-Rain-Thunderstorm,131
2013-7-6,87,79,71,75,72,69,100,88,55,30.23,30.20,30.12,10,7,0,16,4,21,0.04,5,Fog-Rain,109
2013-7-7,89,80,71,73,71,69,100,77,52,30.19,30.16,30.09,10,10,6,12,3,,0.03,2,Rain,165
2013-7-8,89,80,73,72,70,68,90,74,54,30.20,30.16,30.12,10,10,10,10,6,,0.00,3,Rain,192
2013-7-9,89,80,73,73,71,68,89,76,55,30.18,30.13,30.09,10,9,1,17,7,25,0.19,4,Rain-Thunderstorm,181
2013-7-10,89,81,73,72,70,67,94,75,48,30.12,30.06,29.96,10,10,10,13,6,,0.00,4,,197
2013-7-11,90,80,71,72,70,67,100,83,49,29.99,29.93,29.87,10,10,6,16,7,23,0.25,5,Rain-Thunderstorm,181
2013-7-12,83,76,69,75,70,68,100,88,70,29.97,29.92,29.87,10,10,10,18,5,23,1.61,6,Rain-Thunderstorm,172
2013-7-13,84,76,69,77,73,69,100,89,70,30.08,30.03,29.97,10,10,10,10,6,,0.02,6,Rain-Thunderstorm,49
2013-7-14,89,81,73,75,72,70,100,86,52,30.24,30.16,30.09,10,10,10,17,8,24,0.00,5,Rain,101
2013-7-15,86,79,72,77,74,72,100,86,66,30.27,30.25,30.22,10,9,0,21,7,26,0.43,5,Fog-Rain-Thunderstorm,72
2013-7-16,92,81,70,75,73,69,99,77,48,30.30,30.25,30.20,10,10,10,7,3,,0.00,1,,34
2013-7-17,92,81,71,77,71,68,100,83,59,30.22,30.16,30.11,10,7,0,30,6,34,2.15,4,Fog-Rain-Thunderstorm,277
2013-7-18,90,79,69,76,72,69,100,88,59,30.18,30.13,30.05,10,9,2,8,4,,0.00,1,,266
2013-7-19,91,81,72,75,73,72,97,76,54,30.13,30.08,29.99,10,10,10,18,6,,0.00,1,Thunderstorm,182
2013-7-20,88,80,73,74,72,71,94,81,59,30.07,30.03,29.95,10,10,10,16,8,20,0.00,5,,200
2013-7-21,86,79,73,76,73,72,100,89,69,30.03,29.99,29.93,10,10,5,13,8,23,0.42,7,Rain-Thunderstorm,224
2013-7-22,88,80,72,74,73,72,100,84,61,29.99,29.95,29.87,10,10,10,17,7,22,0.01,5,,232
2013-7-23,91,82,73,73,72,70,94,77,51,29.89,29.85,29.78,10,10,10,13,10,18,0.00,3,,242
2013-7-24,88,80,73,74,72,67,100,81,61,29.83,29.79,29.75,10,9,3,13,6,16,0.01,4,Rain,225
2013-7-25,85,78,70,73,70,68,93,76,63,30.00,29.89,29.79,10,10,10,13,6,,0.00,2,,29
2013-7-26,90,79,68,72,69,66,100,76,48,30.08,30.04,30.00,10,10,9,9,5,,0.00,1,,82
2013-7-27,87,78,70,75,73,68,100,88,66,30.04,29.97,29.92,10,9,1,15,5,21,0.19,6,Rain-Thunderstorm,150
2013-7-28,89,80,71,74,72,70,100,89,57,30.02,29.95,29.92,10,10,4,12,4,,0.00,4,Rain-Thunderstorm,156
2013-7-29,90,82,72,74,72,70,97,88,56,30.15,30.06,30.00,10,10,7,22,6,30,0.04,2,Rain-Thunderstorm,206
2013-7-30,90,80,71,73,71,70,100,88,54,30.19,30.15,30.11,10,6,0,10,3,,0.00,4,Fog,55
2013-7-31,84,78,71,77,72,70,100,90,66,30.13,30.07,30.00,10,7,0,15,3,21,0.36,5,Rain-Thunderstorm,136